sensor_id;sensor_type;location;lat;lon;timestamp;pressure;altitude;pressure_sealevel;temperature;humidity
5905;BME280;2978;42.012;24.880;2022-12-29T00:01:46;99908.03;;;6.60;81.28
5905;BME280;2978;42.012;24.880;2022-12-29T00:04:12;99905.91;;;6.62;80.69
5905;BME280;2978;42.012;24.880;2022-12-29T00:06:38;99909.25;;;6.64;80.65
5905;BME280;2978;42.012;24.880;2022-12-29T00:09:04;99915.16;;;6.61;81.02
5905;BME280;2978;42.012;24.880;2022-12-29T00:11:29;99905.91;;;6.62;80.37
5905;BME280;2978;42.012;24.880;2022-12-29T00:13:55;99908.13;;;6.47;80.91
5905;BME280;2978;42.012;24.880;2022-12-29T00:16:44;99909.69;;;6.30;81.35
5905;BME280;2978;42.012;24.880;2022-12-29T00:19:12;99911.19;;;6.26;82.01
5905;BME280;2978;42.012;24.880;2022-12-29T00:21:56;99909.75;;;6.17;82.80
5905;BME280;2978;42.012;24.880;2022-12-29T00:24:41;99921.31;;;6.19;82.53
5905;BME280;2978;42.012;24.880;2022-12-29T00:27:18;99920.00;;;6.28;82.61
5905;BME280;2978;42.012;24.880;2022-12-29T00:30:12;99923.97;;;6.32;82.06
5905;BME280;2978;42.012;24.880;2022-12-29T00:32:56;99944.94;;;6.38;81.99
5905;BME280;2978;42.012;24.880;2022-12-29T00:35:56;99940.53;;;6.37;81.28
5905;BME280;2978;42.012;24.880;2022-12-29T00:38:23;99945.09;;;6.43;80.81
5905;BME280;2978;42.012;24.880;2022-12-29T00:41:07;99955.28;;;6.61;81.56
5905;BME280;2978;42.012;24.880;2022-12-29T00:43:51;99955.88;;;6.69;80.49
5905;BME280;2978;42.012;24.880;2022-12-29T00:46:39;99961.78;;;6.66;80.53
5905;BME280;2978;42.012;24.880;2022-12-29T00:49:06;99964.25;;;6.74;82.33
5905;BME280;2978;42.012;24.880;2022-12-29T00:51:51;99972.81;;;6.84;80.96
5905;BME280;2978;42.012;24.880;2022-12-29T00:54:17;99970.41;;;6.95;79.86
5905;BME280;2978;42.012;24.880;2022-12-29T00:56:42;99979.56;;;7.07;78.33
5905;BME280;2978;42.012;24.880;2022-12-29T00:59:09;99977.53;;;7.20;78.74
5905;BME280;2978;42.012;24.880;2022-12-29T01:01:36;99977.50;;;7.27;78.22
5905;BME280;2978;42.012;24.880;2022-12-29T01:04:03;99976.25;;;7.47;77.13
5905;BME280;2978;42.012;24.880;2022-12-29T01:06:28;99975.41;;;7.47;76.84
5905;BME280;2978;42.012;24.880;2022-12-29T01:08:53;99969.94;;;7.47;76.06
5905;BME280;2978;42.012;24.880;2022-12-29T01:11:38;99977.88;;;7.55;75.65
5905;BME280;2978;42.012;24.880;2022-12-29T01:14:04;99971.19;;;7.69;75.33
5905;BME280;2978;42.012;24.880;2022-12-29T01:16:30;99972.56;;;7.78;74.55
5905;BME280;2978;42.012;24.880;2022-12-29T01:18:56;99972.84;;;7.88;74.59
5905;BME280;2978;42.012;24.880;2022-12-29T01:21:21;99963.50;;;7.95;74.54
5905;BME280;2978;42.012;24.880;2022-12-29T01:23:47;99966.81;;;7.86;73.92
5905;BME280;2978;42.012;24.880;2022-12-29T01:26:14;99959.72;;;7.78;74.79
5905;BME280;2978;42.012;24.880;2022-12-29T01:28:40;99964.66;;;7.70;75.44
5905;BME280;2978;42.012;24.880;2022-12-29T01:31:10;99962.38;;;7.85;76.03
5905;BME280;2978;42.012;24.880;2022-12-29T01:33:37;99973.78;;;7.82;75.12
5905;BME280;2978;42.012;24.880;2022-12-29T01:36:03;99959.47;;;7.80;73.59
5905;BME280;2978;42.012;24.880;2022-12-29T01:38:30;99967.31;;;7.76;73.98
5905;BME280;2978;42.012;24.880;2022-12-29T01:40:55;99961.22;;;7.74;74.70
5905;BME280;2978;42.012;24.880;2022-12-29T01:43:21;99954.94;;;7.74;74.28
5905;BME280;2978;42.012;24.880;2022-12-29T01:45:51;99944.19;;;7.72;73.86
5905;BME280;2978;42.012;24.880;2022-12-29T01:48:19;99947.00;;;7.66;74.15
5905;BME280;2978;42.012;24.880;2022-12-29T01:50:50;99952.03;;;7.69;74.33
5905;BME280;2978;42.012;24.880;2022-12-29T01:53:25;99950.06;;;7.58;74.84
5905;BME280;2978;42.012;24.880;2022-12-29T01:55:55;99937.41;;;7.57;75.63
5905;BME280;2978;42.012;24.880;2022-12-29T01:58:28;99936.22;;;7.53;74.71
5905;BME280;2978;42.012;24.880;2022-12-29T02:00:55;99936.66;;;7.50;75.06
5905;BME280;2978;42.012;24.880;2022-12-29T02:03:22;99935.84;;;7.49;74.86
5905;BME280;2978;42.012;24.880;2022-12-29T02:05:57;99935.00;;;7.49;74.92
5905;BME280;2978;42.012;24.880;2022-12-29T02:08:28;99925.41;;;7.40;74.91
5905;BME280;2978;42.012;24.880;2022-12-29T02:10:55;99925.41;;;7.40;74.78
5905;BME280;2978;42.012;24.880;2022-12-29T02:13:26;99922.59;;;7.28;75.02
5905;BME280;2978;42.012;24.880;2022-12-29T02:24:34;99911.72;;;7.22;75.70
5905;BME280;2978;42.012;24.880;2022-12-29T02:32:55;99890.63;;;7.04;75.84
5905;BME280;2978;42.012;24.880;2022-12-29T02:38:19;99893.97;;;7.06;75.96
5905;BME280;2978;42.012;24.880;2022-12-29T02:40:51;99894.47;;;6.97;75.84
5905;BME280;2978;42.012;24.880;2022-12-29T02:43:29;99885.41;;;6.78;76.77
5905;BME280;2978;42.012;24.880;2022-12-29T02:46:02;99871.56;;;6.48;77.50
5905;BME280;2978;42.012;24.880;2022-12-29T02:48:45;99881.50;;;6.36;77.68
5905;BME280;2978;42.012;24.880;2022-12-29T02:51:20;99883.63;;;6.34;78.68
5905;BME280;2978;42.012;24.880;2022-12-29T02:53:49;99870.47;;;6.25;78.20
5905;BME280;2978;42.012;24.880;2022-12-29T02:56:34;99874.28;;;6.17;78.75
5905;BME280;2978;42.012;24.880;2022-12-29T02:58:59;99867.44;;;6.08;78.72
5905;BME280;2978;42.012;24.880;2022-12-29T03:10:19;99855.81;;;5.75;81.04
5905;BME280;2978;42.012;24.880;2022-12-29T03:16:10;99864.41;;;5.79;81.00
5905;BME280;2978;42.012;24.880;2022-12-29T03:21:21;99876.97;;;5.80;80.63
5905;BME280;2978;42.012;24.880;2022-12-29T03:24:10;99881.63;;;5.86;80.62
5905;BME280;2978;42.012;24.880;2022-12-29T03:26:37;99872.81;;;5.84;80.59
5905;BME280;2978;42.012;24.880;2022-12-29T03:29:03;99868.41;;;5.76;80.38
5905;BME280;2978;42.012;24.880;2022-12-29T03:31:31;99867.81;;;5.67;81.20
5905;BME280;2978;42.012;24.880;2022-12-29T03:33:57;99866.56;;;5.63;80.63
5905;BME280;2978;42.012;24.880;2022-12-29T03:36:30;99854.81;;;5.63;80.97
5905;BME280;2978;42.012;24.880;2022-12-29T03:39:07;99869.47;;;5.68;80.33
5905;BME280;2978;42.012;24.880;2022-12-29T03:41:34;99861.91;;;5.70;80.75
5905;BME280;2978;42.012;24.880;2022-12-29T03:44:00;99854.75;;;5.76;80.97
5905;BME280;2978;42.012;24.880;2022-12-29T03:46:26;99867.78;;;5.74;80.88
5905;BME280;2978;42.012;24.880;2022-12-29T03:48:51;99869.47;;;5.75;80.53
5905;BME280;2978;42.012;24.880;2022-12-29T03:51:17;99866.34;;;5.65;80.02
5905;BME280;2978;42.012;24.880;2022-12-29T03:53:42;99861.38;;;5.49;80.56
5905;BME280;2978;42.012;24.880;2022-12-29T03:56:08;99866.16;;;5.60;80.74
5905;BME280;2978;42.012;24.880;2022-12-29T03:58:34;99867.84;;;5.61;81.14
5905;BME280;2978;42.012;24.880;2022-12-29T04:00:59;99860.47;;;5.68;80.53
5905;BME280;2978;42.012;24.880;2022-12-29T04:03:25;99859.00;;;5.65;80.84
5905;BME280;2978;42.012;24.880;2022-12-29T04:05:50;99856.75;;;5.49;81.63
5905;BME280;2978;42.012;24.880;2022-12-29T04:08:16;99855.28;;;5.53;82.10
5905;BME280;2978;42.012;24.880;2022-12-29T04:10:41;99858.22;;;5.52;81.88
5905;BME280;2978;42.012;24.880;2022-12-29T04:13:06;99859.31;;;5.38;81.63
5905;BME280;2978;42.012;24.880;2022-12-29T04:15:32;99867.28;;;5.39;81.78
5905;BME280;2978;42.012;24.880;2022-12-29T04:17:57;99855.75;;;5.44;81.60
5905;BME280;2978;42.012;24.880;2022-12-29T04:20:23;99877.94;;;5.47;81.59
5905;BME280;2978;42.012;24.880;2022-12-29T04:23:07;99857.44;;;5.38;81.83
5905;BME280;2978;42.012;24.880;2022-12-29T04:25:33;99853.91;;;5.31;81.74
5905;BME280;2978;42.012;24.880;2022-12-29T04:27:58;99856.63;;;5.31;81.74
5905;BME280;2978;42.012;24.880;2022-12-29T04:30:24;99841.94;;;5.26;82.39
5905;BME280;2978;42.012;24.880;2022-12-29T04:32:50;99854.97;;;5.24;82.37
5905;BME280;2978;42.012;24.880;2022-12-29T04:35:15;99860.84;;;5.21;82.78
5905;BME280;2978;42.012;24.880;2022-12-29T04:37:41;99868.38;;;5.19;82.60
5905;BME280;2978;42.012;24.880;2022-12-29T04:40:07;99867.94;;;5.28;82.40
5905;BME280;2978;42.012;24.880;2022-12-29T04:42:33;99862.50;;;5.22;82.77
5905;BME280;2978;42.012;24.880;2022-12-29T04:44:58;99875.91;;;5.23;82.60
5905;BME280;2978;42.012;24.880;2022-12-29T04:47:24;99883.28;;;5.23;82.90
5905;BME280;2978;42.012;24.880;2022-12-29T04:49:49;99886.81;;;5.30;83.26
5905;BME280;2978;42.012;24.880;2022-12-29T04:52:14;99888.66;;;5.42;82.29
5905;BME280;2978;42.012;24.880;2022-12-29T04:54:40;99902.28;;;5.42;82.36
5905;BME280;2978;42.012;24.880;2022-12-29T04:57:05;99898.91;;;5.53;81.97
5905;BME280;2978;42.012;24.880;2022-12-29T04:59:31;99895.94;;;5.61;81.28
5905;BME280;2978;42.012;24.880;2022-12-29T05:01:56;99907.69;;;5.62;80.84
5905;BME280;2978;42.012;24.880;2022-12-29T05:04:22;99906.88;;;5.55;81.15
5905;BME280;2978;42.012;24.880;2022-12-29T05:06:47;99895.53;;;5.58;81.67
5905;BME280;2978;42.012;24.880;2022-12-29T05:09:13;99903.47;;;5.66;81.40
5905;BME280;2978;42.012;24.880;2022-12-29T05:11:38;99917.50;;;5.76;81.92
5905;BME280;2978;42.012;24.880;2022-12-29T05:14:04;99914.09;;;5.81;81.69
5905;BME280;2978;42.012;24.880;2022-12-29T05:16:29;99919.56;;;5.81;81.90
5905;BME280;2978;42.012;24.880;2022-12-29T05:18:54;99932.41;;;5.87;81.13
5905;BME280;2978;42.012;24.880;2022-12-29T05:21:20;99932.78;;;5.90;81.24
5905;BME280;2978;42.012;24.880;2022-12-29T05:23:45;99931.94;;;5.96;81.14
5905;BME280;2978;42.012;24.880;2022-12-29T05:26:11;99926.03;;;5.99;80.50
5905;BME280;2978;42.012;24.880;2022-12-29T05:28:36;99929.63;;;5.93;79.95
5905;BME280;2978;42.012;24.880;2022-12-29T05:31:01;99932.84;;;5.84;79.80
5905;BME280;2978;42.012;24.880;2022-12-29T05:33:27;99927.34;;;5.77;79.88
5905;BME280;2978;42.012;24.880;2022-12-29T05:35:52;99930.72;;;5.72;80.39
5905;BME280;2978;42.012;24.880;2022-12-29T05:38:18;99921.75;;;5.59;80.26
5905;BME280;2978;42.012;24.880;2022-12-29T05:40:43;99926.63;;;5.50;81.29
5905;BME280;2978;42.012;24.880;2022-12-29T05:43:09;99913.00;;;5.44;81.51
5905;BME280;2978;42.012;24.880;2022-12-29T05:45:35;99916.53;;;5.51;81.50
5905;BME280;2978;42.012;24.880;2022-12-29T05:48:01;99912.94;;;5.57;81.70
5905;BME280;2978;42.012;24.880;2022-12-29T05:50:27;99897.84;;;5.54;81.18
5905;BME280;2978;42.012;24.880;2022-12-29T05:52:52;99904.78;;;5.57;80.74
5905;BME280;2978;42.012;24.880;2022-12-29T05:55:18;99901.41;;;5.55;80.60
5905;BME280;2978;42.012;24.880;2022-12-29T05:57:43;99895.34;;;5.53;81.30
5905;BME280;2978;42.012;24.880;2022-12-29T06:00:09;99895.34;;;5.53;80.65
5905;BME280;2978;42.012;24.880;2022-12-29T06:02:35;99902.28;;;5.49;81.19
5905;BME280;2978;42.012;24.880;2022-12-29T06:05:01;99902.69;;;5.46;81.11
5905;BME280;2978;42.012;24.880;2022-12-29T06:07:26;99890.56;;;5.42;81.43
5905;BME280;2978;42.012;24.880;2022-12-29T06:09:51;99888.47;;;5.37;81.76
5905;BME280;2978;42.012;24.880;2022-12-29T06:12:17;99886.19;;;5.28;82.04
5905;BME280;2978;42.012;24.880;2022-12-29T06:14:42;99876.31;;;5.27;82.30
5905;BME280;2978;42.012;24.880;2022-12-29T06:17:08;99886.81;;;5.30;82.79
5905;BME280;2978;42.012;24.880;2022-12-29T06:19:33;99873.84;;;5.19;82.83
5905;BME280;2978;42.012;24.880;2022-12-29T06:21:59;99871.91;;;5.32;82.32
5905;BME280;2978;42.012;24.880;2022-12-29T06:24:24;99881.81;;;5.14;82.52
5905;BME280;2978;42.012;24.880;2022-12-29T06:26:49;99868.38;;;5.19;82.55
5905;BME280;2978;42.012;24.880;2022-12-29T06:29:15;99888.09;;;5.21;82.46
5905;BME280;2978;42.012;24.880;2022-12-29T06:31:43;99892.03;;;5.38;82.85
5905;BME280;2978;42.012;24.880;2022-12-29T06:34:11;99875.09;;;5.23;82.28
5905;BME280;2978;42.012;24.880;2022-12-29T06:36:36;99884.31;;;5.22;83.47
5905;BME280;2978;42.012;24.880;2022-12-29T06:39:02;99886.16;;;5.34;82.53
5905;BME280;2978;42.012;24.880;2022-12-29T06:41:27;99897.66;;;5.49;82.10
5905;BME280;2978;42.012;24.880;2022-12-29T06:43:53;99896.78;;;5.62;82.37
5905;BME280;2978;42.012;24.880;2022-12-29T06:46:18;99893.53;;;5.91;80.45
5905;BME280;2978;42.012;24.880;2022-12-29T06:48:45;99902.78;;;5.90;80.07
5905;BME280;2978;42.012;24.880;2022-12-29T06:51:10;99910.56;;;5.80;80.23
5905;BME280;2978;42.012;24.880;2022-12-29T06:53:36;99908.25;;;5.77;80.51
5905;BME280;2978;42.012;24.880;2022-12-29T06:56:01;99914.53;;;5.91;80.17
5905;BME280;2978;42.012;24.880;2022-12-29T06:58:26;99919.28;;;6.08;79.85
5905;BME280;2978;42.012;24.880;2022-12-29T07:00:52;99904.56;;;6.09;79.15
5905;BME280;2978;42.012;24.880;2022-12-29T07:03:17;99921.25;;;6.32;79.12
5905;BME280;2978;42.012;24.880;2022-12-29T07:05:43;99925.56;;;6.46;78.08
5905;BME280;2978;42.012;24.880;2022-12-29T07:08:08;99921.31;;;6.57;77.47
5905;BME280;2978;42.012;24.880;2022-12-29T07:10:34;99928.88;;;6.55;77.60
5905;BME280;2978;42.012;24.880;2022-12-29T07:12:59;99920.16;;;6.64;77.10
5905;BME280;2978;42.012;24.880;2022-12-29T07:15:25;99930.72;;;6.85;76.41
5905;BME280;2978;42.012;24.880;2022-12-29T07:17:50;99939.28;;;6.96;76.61
5905;BME280;2978;42.012;24.880;2022-12-29T07:20:16;99937.50;;;7.08;75.42
5905;BME280;2978;42.012;24.880;2022-12-29T07:22:41;99938.69;;;7.18;74.97
5905;BME280;2978;42.012;24.880;2022-12-29T07:25:07;99938.22;;;7.21;74.78
5905;BME280;2978;42.012;24.880;2022-12-29T07:27:33;99944.06;;;7.25;73.89
5905;BME280;2978;42.012;24.880;2022-12-29T07:29:58;99950.44;;;7.19;74.58
5905;BME280;2978;42.012;24.880;2022-12-29T07:32:24;99949.38;;;7.20;74.60
5905;BME280;2978;42.012;24.880;2022-12-29T07:34:49;99950.44;;;7.19;74.65
5905;BME280;2978;42.012;24.880;2022-12-29T07:37:15;99941.97;;;7.27;73.53
5905;BME280;2978;42.012;24.880;2022-12-29T07:39:40;99941.97;;;7.27;74.16
5905;BME280;2978;42.012;24.880;2022-12-29T07:42:06;99944.00;;;7.31;74.03
5905;BME280;2978;42.012;24.880;2022-12-29T07:44:31;99946.13;;;7.29;73.98
5905;BME280;2978;42.012;24.880;2022-12-29T07:46:57;99945.06;;;7.30;73.83
5905;BME280;2978;42.012;24.880;2022-12-29T07:49:25;99948.13;;;7.40;73.63
5905;BME280;2978;42.012;24.880;2022-12-29T07:51:51;99952.47;;;7.48;73.60
5905;BME280;2978;42.012;24.880;2022-12-29T07:54:16;99950.28;;;7.56;73.03
5905;BME280;2978;42.012;24.880;2022-12-29T07:56:45;99941.06;;;7.69;72.94
5905;BME280;2978;42.012;24.880;2022-12-29T07:59:10;99940.94;;;7.82;72.45
5905;BME280;2978;42.012;24.880;2022-12-29T08:01:37;99942.44;;;7.96;72.67
5905;BME280;2978;42.012;24.880;2022-12-29T08:04:03;99946.69;;;8.10;71.84
5905;BME280;2978;42.012;24.880;2022-12-29T08:06:28;99943.63;;;8.18;71.02
5905;BME280;2978;42.012;24.880;2022-12-29T08:08:55;99959.41;;;8.23;71.18
5905;BME280;2978;42.012;24.880;2022-12-29T08:11:21;99958.88;;;8.32;70.58
5905;BME280;2978;42.012;24.880;2022-12-29T08:13:47;99956.13;;;8.32;70.46
5905;BME280;2978;42.012;24.880;2022-12-29T08:16:12;99957.09;;;8.38;71.06
5905;BME280;2978;42.012;24.880;2022-12-29T08:18:38;99957.63;;;8.46;70.84
5905;BME280;2978;42.012;24.880;2022-12-29T08:21:04;99961.72;;;8.55;70.29
5905;BME280;2978;42.012;24.880;2022-12-29T08:23:30;99951.44;;;8.51;70.47
5905;BME280;2978;42.012;24.880;2022-12-29T08:25:59;99949.00;;;8.72;70.20
5905;BME280;2978;42.012;24.880;2022-12-29T08:28:25;99945.91;;;8.80;70.50
5905;BME280;2978;42.012;24.880;2022-12-29T08:30:51;99951.28;;;8.75;71.22
5905;BME280;2978;42.012;24.880;2022-12-29T08:33:17;99947.34;;;8.71;71.31
5905;BME280;2978;42.012;24.880;2022-12-29T08:35:42;99949.75;;;8.79;70.97
5905;BME280;2978;42.012;24.880;2022-12-29T08:38:08;99938.59;;;8.92;70.68
5905;BME280;2978;42.012;24.880;2022-12-29T08:40:33;99947.75;;;8.98;71.44
5905;BME280;2978;42.012;24.880;2022-12-29T08:42:58;99940.84;;;9.07;71.98
5905;BME280;2978;42.012;24.880;2022-12-29T08:45:24;99940.38;;;9.10;71.98
5905;BME280;2978;42.012;24.880;2022-12-29T08:47:49;99936.56;;;9.23;71.17
5905;BME280;2978;42.012;24.880;2022-12-29T08:50:15;99934.56;;;9.41;70.17
5905;BME280;2978;42.012;24.880;2022-12-29T08:52:40;99934.66;;;9.58;70.15
5905;BME280;2978;42.012;24.880;2022-12-29T08:55:06;99920.59;;;9.66;70.32
5905;BME280;2978;42.012;24.880;2022-12-29T08:57:31;99923.44;;;9.71;70.34
5905;BME280;2978;42.012;24.880;2022-12-29T08:59:57;99921.75;;;9.70;70.26
5905;BME280;2978;42.012;24.880;2022-12-29T09:02:22;99921.06;;;9.63;70.45
5905;BME280;2978;42.012;24.880;2022-12-29T09:04:47;99919.75;;;9.54;70.83
5905;BME280;2978;42.012;24.880;2022-12-29T09:07:13;99913.81;;;9.57;71.33
5905;BME280;2978;42.012;24.880;2022-12-29T09:09:38;99910.44;;;9.55;71.60
5905;BME280;2978;42.012;24.880;2022-12-29T09:12:04;99906.28;;;9.64;71.28
5905;BME280;2978;42.012;24.880;2022-12-29T09:14:29;99905.28;;;9.70;71.49
5905;BME280;2978;42.012;24.880;2022-12-29T09:16:55;99903.63;;;9.69;71.81
5905;BME280;2978;42.012;24.880;2022-12-29T09:19:39;99894.09;;;9.60;72.51
5905;BME280;2978;42.012;24.880;2022-12-29T09:22:05;99880.84;;;9.57;72.85
5905;BME280;2978;42.012;24.880;2022-12-29T09:24:30;99880.72;;;9.63;72.55
5905;BME280;2978;42.012;24.880;2022-12-29T09:26:56;99881.06;;;9.67;73.13
5905;BME280;2978;42.012;24.880;2022-12-29T09:29:21;99878.09;;;9.68;72.73
5905;BME280;2978;42.012;24.880;2022-12-29T09:31:47;99881.56;;;9.64;73.20
5905;BME280;2978;42.012;24.880;2022-12-29T09:34:12;99875.78;;;9.77;72.69
5905;BME280;2978;42.012;24.880;2022-12-29T09:36:38;99868.00;;;9.85;72.36
5905;BME280;2978;42.012;24.880;2022-12-29T09:39:03;99860.84;;;9.84;72.33
5905;BME280;2978;42.012;24.880;2022-12-29T09:41:36;99854.75;;;9.82;72.30
5905;BME280;2978;42.012;24.880;2022-12-29T09:44:12;99851.53;;;9.85;72.27
5905;BME280;2978;42.012;24.880;2022-12-29T09:46:48;99855.13;;;9.86;72.71
5905;BME280;2978;42.012;24.880;2022-12-29T09:49:28;99845.69;;;9.82;72.47
5905;BME280;2978;42.012;24.880;2022-12-29T09:52:12;99838.22;;;9.94;72.57
5905;BME280;2978;42.012;24.880;2022-12-29T09:54:52;99834.63;;;10.05;72.83
5905;BME280;2978;42.012;24.880;2022-12-29T09:57:26;99835.47;;;10.05;72.63
5905;BME280;2978;42.012;24.880;2022-12-29T09:59:57;99823.59;;;10.16;72.36
5905;BME280;2978;42.012;24.880;2022-12-29T10:04:58;99817.28;;;10.16;72.20
5905;BME280;2978;42.012;24.880;2022-12-29T10:07:51;99813.72;;;10.32;71.90
5905;BME280;2978;42.012;24.880;2022-12-29T10:13:04;99811.31;;;10.36;71.61
5905;BME280;2978;42.012;24.880;2022-12-29T10:23:43;99794.00;;;10.35;72.44
5905;BME280;2978;42.012;24.880;2022-12-29T10:26:14;99777.84;;;10.39;72.37
5905;BME280;2978;42.012;24.880;2022-12-29T10:28:45;99791.94;;;10.42;72.47
5905;BME280;2978;42.012;24.880;2022-12-29T10:31:25;99780.75;;;10.49;72.53
5905;BME280;2978;42.012;24.880;2022-12-29T10:33:57;99783.41;;;10.60;71.85
5905;BME280;2978;42.012;24.880;2022-12-29T10:36:37;99780.41;;;10.78;71.57
5905;BME280;2978;42.012;24.880;2022-12-29T10:42:18;99777.53;;;11.06;70.66
5905;BME280;2978;42.012;24.880;2022-12-29T10:44:46;99767.47;;;10.95;70.56
5905;BME280;2978;42.012;24.880;2022-12-29T10:47:20;99769.56;;;10.88;71.15
5905;BME280;2978;42.012;24.880;2022-12-29T10:49:48;99783.56;;;11.03;71.07
5905;BME280;2978;42.012;24.880;2022-12-29T10:52:16;99773.56;;;10.97;71.15
5905;BME280;2978;42.012;24.880;2022-12-29T10:55:03;99769.38;;;10.95;71.17
5905;BME280;2978;42.012;24.880;2022-12-29T10:57:36;99768.56;;;10.94;71.42
5905;BME280;2978;42.012;24.880;2022-12-29T11:00:12;99766.06;;;10.93;71.95
5905;BME280;2978;42.012;24.880;2022-12-29T11:08:38;99761.78;;;11.02;71.65
5905;BME280;2978;42.012;24.880;2022-12-29T11:11:08;99758.34;;;11.11;71.11
5905;BME280;2978;42.012;24.880;2022-12-29T11:13:47;99751.69;;;11.07;71.01
5905;BME280;2978;42.012;24.880;2022-12-29T11:16:12;99747.22;;;11.01;71.06
5905;BME280;2978;42.012;24.880;2022-12-29T11:18:39;99744.19;;;11.03;71.50
5905;BME280;2978;42.012;24.880;2022-12-29T11:21:23;99750.69;;;11.13;70.86
5905;BME280;2978;42.012;24.880;2022-12-29T11:24:02;99742.81;;;11.22;71.20
5905;BME280;2978;42.012;24.880;2022-12-29T11:26:29;99746.22;;;11.29;70.96
5905;BME280;2978;42.012;24.880;2022-12-29T11:29:17;99741.88;;;11.33;70.16
5905;BME280;2978;42.012;24.880;2022-12-29T11:31:48;99729.50;;;11.35;70.43
5905;BME280;2978;42.012;24.880;2022-12-29T11:36:46;99722.25;;;11.51;69.60
5905;BME280;2978;42.012;24.880;2022-12-29T11:41:53;99725.91;;;11.57;69.17
5905;BME280;2978;42.012;24.880;2022-12-29T11:44:19;99721.97;;;11.53;69.23
5905;BME280;2978;42.012;24.880;2022-12-29T11:46:48;99722.31;;;11.56;69.33
5905;BME280;2978;42.012;24.880;2022-12-29T11:49:20;99717.09;;;11.60;69.32
5905;BME280;2978;42.012;24.880;2022-12-29T11:51:48;99708.94;;;11.65;69.03
5905;BME280;2978;42.012;24.880;2022-12-29T11:54:35;99715.41;;;11.54;69.36
5905;BME280;2978;42.012;24.880;2022-12-29T11:57:14;99712.13;;;11.57;70.04
5905;BME280;2978;42.012;24.880;2022-12-29T11:59:43;99715.97;;;11.56;69.74
5905;BME280;2978;42.012;24.880;2022-12-29T12:04:40;99713.28;;;11.61;69.28
5905;BME280;2978;42.012;24.880;2022-12-29T12:07:22;99706.63;;;11.57;69.51
5905;BME280;2978;42.012;24.880;2022-12-29T12:09:58;99703.06;;;11.61;68.84
5905;BME280;2978;42.012;24.880;2022-12-29T12:12:34;99704.25;;;11.65;69.70
5905;BME280;2978;42.012;24.880;2022-12-29T12:15:02;99692.81;;;11.73;69.25
5905;BME280;2978;42.012;24.880;2022-12-29T12:17:39;99696.47;;;11.84;69.19
5905;BME280;2978;42.012;24.880;2022-12-29T12:20:22;99688.28;;;11.89;68.66
5905;BME280;2978;42.012;24.880;2022-12-29T12:25:23;99683.38;;;11.96;68.72
5905;BME280;2978;42.012;24.880;2022-12-29T12:28:00;99677.25;;;11.89;68.44
5905;BME280;2978;42.012;24.880;2022-12-29T12:30:40;99686.19;;;12.01;68.57
5905;BME280;2978;42.012;24.880;2022-12-29T12:33:35;99683.47;;;12.06;68.00
5905;BME280;2978;42.012;24.880;2022-12-29T12:39:06;99681.69;;;11.95;68.54
5905;BME280;2978;42.012;24.880;2022-12-29T12:44:20;99680.66;;;12.01;67.76
5905;BME280;2978;42.012;24.880;2022-12-29T12:55:26;99683.31;;;11.91;68.95
5905;BME280;2978;42.012;24.880;2022-12-29T13:09:03;99679.94;;;11.84;69.14
5905;BME280;2978;42.012;24.880;2022-12-29T13:19:29;99681.56;;;11.80;69.39
5905;BME280;2978;42.012;24.880;2022-12-29T13:27:45;99678.22;;;11.78;69.74
5905;BME280;2978;42.012;24.880;2022-12-29T13:30:19;99676.88;;;11.80;69.25
5905;BME280;2978;42.012;24.880;2022-12-29T13:38:42;99674.41;;;11.84;69.30
5905;BME280;2978;42.012;24.880;2022-12-29T13:41:16;99677.16;;;11.84;69.55
5905;BME280;2978;42.012;24.880;2022-12-29T13:43:44;99679.53;;;11.97;69.37
5905;BME280;2978;42.012;24.880;2022-12-29T13:46:22;99680.06;;;11.94;69.39
5905;BME280;2978;42.012;24.880;2022-12-29T13:48:57;99683.88;;;11.93;69.17
5905;BME280;2978;42.012;24.880;2022-12-29T13:51:25;99687.16;;;11.90;69.44
5905;BME280;2978;42.012;24.880;2022-12-29T13:54:12;99691.69;;;11.74;69.44
5905;BME280;2978;42.012;24.880;2022-12-29T13:57:02;99687.38;;;11.62;70.53
5905;BME280;2978;42.012;24.880;2022-12-29T13:59:52;99687.38;;;11.62;70.46
5905;BME280;2978;42.012;24.880;2022-12-29T14:05:26;99685.91;;;11.54;71.12
5905;BME280;2978;42.012;24.880;2022-12-29T14:08:03;99690.09;;;11.57;70.43
5905;BME280;2978;42.012;24.880;2022-12-29T14:13:16;99691.22;;;11.34;72.27
5905;BME280;2978;42.012;24.880;2022-12-29T14:15:44;99684.38;;;11.15;72.72
5905;BME280;2978;42.012;24.880;2022-12-29T14:18:12;99687.75;;;11.00;72.62
5905;BME280;2978;42.012;24.880;2022-12-29T14:20:56;99694.63;;;10.81;74.09
5905;BME280;2978;42.012;24.880;2022-12-29T14:23:41;99682.00;;;10.64;74.96
5905;BME280;2978;42.012;24.880;2022-12-29T14:28:40;99681.28;;;10.52;76.13
5905;BME280;2978;42.012;24.880;2022-12-29T14:33:41;99685.44;;;10.54;75.81
5905;BME280;2978;42.012;24.880;2022-12-29T14:36:37;99690.59;;;10.67;75.98
5905;BME280;2978;42.012;24.880;2022-12-29T14:39:04;99685.78;;;10.58;76.09
5905;BME280;2978;42.012;24.880;2022-12-29T14:42:19;99681.59;;;10.55;76.01
5905;BME280;2978;42.012;24.880;2022-12-29T14:47:25;99686.22;;;10.16;77.65
5905;BME280;2978;42.012;24.880;2022-12-29T14:49:53;99700.44;;;10.13;78.07
5905;BME280;2978;42.012;24.880;2022-12-29T14:52:22;99690.00;;;9.99;78.58
5905;BME280;2978;42.012;24.880;2022-12-29T14:54:51;99688.94;;;10.00;78.88
5905;BME280;2978;42.012;24.880;2022-12-29T14:57:37;99681.00;;;9.87;79.26
5905;BME280;2978;42.012;24.880;2022-12-29T15:00:16;99703.56;;;9.89;79.57
5905;BME280;2978;42.012;24.880;2022-12-29T15:02:46;99705.72;;;9.87;79.68
5905;BME280;2978;42.012;24.880;2022-12-29T15:05:30;99705.38;;;9.83;79.94
5905;BME280;2978;42.012;24.880;2022-12-29T15:07:58;99700.63;;;9.79;80.13
5905;BME280;2978;42.012;24.880;2022-12-29T15:10:25;99698.94;;;9.61;80.85
5905;BME280;2978;42.012;24.880;2022-12-29T15:13:03;99699.53;;;9.63;80.95
5905;BME280;2978;42.012;24.880;2022-12-29T15:15:36;99698.41;;;9.48;81.30
5905;BME280;2978;42.012;24.880;2022-12-29T15:18:23;99703.41;;;9.51;81.47
5905;BME280;2978;42.012;24.880;2022-12-29T15:21:05;99698.31;;;9.43;81.70
5905;BME280;2978;42.012;24.880;2022-12-29T15:23:33;99700.31;;;9.47;81.82
5905;BME280;2978;42.012;24.880;2022-12-29T15:26:05;99704.59;;;9.43;81.96
5905;BME280;2978;42.012;24.880;2022-12-29T15:28:40;99708.09;;;9.39;82.37
5905;BME280;2978;42.012;24.880;2022-12-29T15:33:39;99708.59;;;9.36;82.81
5905;BME280;2978;42.012;24.880;2022-12-29T15:36:16;99711.28;;;9.47;82.04
5905;BME280;2978;42.012;24.880;2022-12-29T15:38:44;99712.03;;;9.43;82.05
5905;BME280;2978;42.012;24.880;2022-12-29T15:41:34;99708.78;;;9.46;81.48